Ana Sayfa
METAR-TAF:

METAR-TAF

Havaalanları :

Morristown, New Jersey, Amerika Birleşik Devletleri

Enlem: 40-48N, Boylam: 074-25W, yükseklik: 57 m

Güncel hava durumu gözlemi

Rapor saat 19:45 UTC de 28 dakika önce yapıldı.
Rüzgar kuzeybatıdan 9 kt
Sıcaklık 9°C
Nem 49%
Basınç 1027 hPa
Görüş mesafesi: 16.1 km
25000 ft yükseklikte parçalı bulutlu

METAR: KMMU 241945Z 32009KT 10SM SCT250 09/M01 A3033

Saat: 15:13 (20:13 UTC)


TAF: eksik

4.000'den fazla havaalanı için hava durumu gözlemleri ve tahminleri (METAR ve TAF raporları).

Kullanılabilir istasyonlar harita üzerinde sarı ve kırmızı noktalarla gösterilir.

İstasyonun adını görmek için fareyi noktanın üzerinde gezdirin.

Sonrasında hava gözlem ve tahminlerini görmek için tıklayın.

Haritayı değiştirmek için: yaklaştırmak için siyah artı işaretli yeşil düğmeye ve uzaklaştırmak için de eksi işaretli düğmeye hızla tıklayın; bitişik haritalar için yeşil okları kullanın.


METAR-TAF: